sensor_id;sensor_type;location;lat;lon;timestamp;pressure;altitude;pressure_sealevel;temperature;humidity
3260;BME280;68938;48.150;14.004;2023-05-29T00:00:46;98053.59;;;17.63;54.24
3260;BME280;68938;48.150;14.004;2023-05-29T00:03:13;98056.47;;;17.59;54.07
3260;BME280;68938;48.150;14.004;2023-05-29T00:05:40;98064.41;;;17.56;54.30
3260;BME280;68938;48.150;14.004;2023-05-29T00:08:07;98060.34;;;17.51;54.15
3260;BME280;68938;48.150;14.004;2023-05-29T00:10:34;98060.53;;;17.48;54.19
3260;BME280;68938;48.150;14.004;2023-05-29T00:13:01;98057.28;;;17.45;54.72
3260;BME280;68938;48.150;14.004;2023-05-29T00:15:29;98057.56;;;17.40;54.87
3260;BME280;68938;48.150;14.004;2023-05-29T00:17:56;98055.16;;;17.37;54.89
3260;BME280;68938;48.150;14.004;2023-05-29T00:20:23;98053.56;;;17.35;54.92
3260;BME280;68938;48.150;14.004;2023-05-29T00:22:50;98060.69;;;17.31;54.75
3260;BME280;68938;48.150;14.004;2023-05-29T00:25:17;98061.78;;;17.27;55.13
3260;BME280;68938;48.150;14.004;2023-05-29T00:27:44;98058.44;;;17.25;55.57
3260;BME280;68938;48.150;14.004;2023-05-29T00:30:11;98060.38;;;17.21;55.38
3260;BME280;68938;48.150;14.004;2023-05-29T00:32:38;98052.78;;;17.18;55.58
3260;BME280;68938;48.150;14.004;2023-05-29T00:35:06;98057.31;;;17.15;55.88
3260;BME280;68938;48.150;14.004;2023-05-29T00:37:33;98054.16;;;17.10;56.08
3260;BME280;68938;48.150;14.004;2023-05-29T00:40:00;98060.44;;;17.05;56.24
3260;BME280;68938;48.150;14.004;2023-05-29T00:42:27;98044.22;;;17.02;56.47
3260;BME280;68938;48.150;14.004;2023-05-29T00:44:54;98055.50;;;17.01;56.58
3260;BME280;68938;48.150;14.004;2023-05-29T00:47:21;98053.19;;;16.96;56.58
3260;BME280;68938;48.150;14.004;2023-05-29T00:49:49;98052.53;;;16.93;56.93
3260;BME280;68938;48.150;14.004;2023-05-29T00:52:17;98038.44;;;16.83;57.11
3260;BME280;68938;48.150;14.004;2023-05-29T00:54:45;98037.69;;;16.80;57.24
3260;BME280;68938;48.150;14.004;2023-05-29T00:57:13;98043.69;;;16.81;57.41
3260;BME280;68938;48.150;14.004;2023-05-29T00:59:41;98048.16;;;16.79;57.42
3260;BME280;68938;48.150;14.004;2023-05-29T01:02:09;98050.09;;;16.74;57.53
3260;BME280;68938;48.150;14.004;2023-05-29T01:04:36;98040.25;;;16.65;57.71
3260;BME280;68938;48.150;14.004;2023-05-29T01:07:03;98047.03;;;16.67;58.04
3260;BME280;68938;48.150;14.004;2023-05-29T01:09:31;98043.22;;;16.58;58.17
3260;BME280;68938;48.150;14.004;2023-05-29T01:12:08;98047.38;;;16.61;58.05
3260;BME280;68938;48.150;14.004;2023-05-29T01:21:00;98059.34;;;16.48;58.42
3260;BME280;68938;48.150;14.004;2023-05-29T01:28:51;98058.00;;;16.41;58.41
3260;BME280;68938;48.150;14.004;2023-05-29T01:31:23;98064.84;;;16.42;58.63
3260;BME280;68938;48.150;14.004;2023-05-29T01:33:56;98066.84;;;16.37;58.62
3260;BME280;68938;48.150;14.004;2023-05-29T01:36:24;98055.31;;;16.26;59.22
3260;BME280;68938;48.150;14.004;2023-05-29T01:38:55;98067.16;;;16.30;59.09
3260;BME280;68938;48.150;14.004;2023-05-29T01:41:24;98067.28;;;16.29;59.46
3260;BME280;68938;48.150;14.004;2023-05-29T01:43:53;98070.34;;;16.20;59.94
3260;BME280;68938;48.150;14.004;2023-05-29T01:46:21;98067.09;;;16.16;60.04
3260;BME280;68938;48.150;14.004;2023-05-29T01:48:49;98056.91;;;16.13;60.07
3260;BME280;68938;48.150;14.004;2023-05-29T01:51:16;98052.97;;;16.06;59.91
3260;BME280;68938;48.150;14.004;2023-05-29T01:53:43;98059.84;;;16.07;60.38
3260;BME280;68938;48.150;14.004;2023-05-29T01:56:11;98059.91;;;16.05;60.59
3260;BME280;68938;48.150;14.004;2023-05-29T01:58:38;98056.59;;;16.03;60.32
3260;BME280;68938;48.150;14.004;2023-05-29T02:01:06;98059.38;;;15.99;60.29
3260;BME280;68938;48.150;14.004;2023-05-29T02:03:34;98059.50;;;15.97;59.90
3260;BME280;68938;48.150;14.004;2023-05-29T02:06:01;98062.31;;;15.93;60.13
3260;BME280;68938;48.150;14.004;2023-05-29T02:08:28;98056.44;;;15.89;60.19
3260;BME280;68938;48.150;14.004;2023-05-29T02:10:55;98050.75;;;15.82;61.03
3260;BME280;68938;48.150;14.004;2023-05-29T02:13:22;98056.09;;;15.79;61.14
3260;BME280;68938;48.150;14.004;2023-05-29T02:15:49;98061.25;;;15.79;60.76
3260;BME280;68938;48.150;14.004;2023-05-29T02:18:16;98059.84;;;15.74;61.29
3260;BME280;68938;48.150;14.004;2023-05-29T02:20:43;98058.19;;;15.73;61.34
3260;BME280;68938;48.150;14.004;2023-05-29T02:23:10;98054.84;;;15.71;61.24
3260;BME280;68938;48.150;14.004;2023-05-29T02:25:37;98053.19;;;15.70;61.34
3260;BME280;68938;48.150;14.004;2023-05-29T02:28:04;98049.00;;;15.67;61.28
3260;BME280;68938;48.150;14.004;2023-05-29T02:30:31;98039.03;;;15.59;61.32
3260;BME280;68938;48.150;14.004;2023-05-29T02:32:58;98046.78;;;15.59;61.59
3260;BME280;68938;48.150;14.004;2023-05-29T02:35:25;98048.69;;;15.56;61.78
3260;BME280;68938;48.150;14.004;2023-05-29T02:37:52;98051.34;;;15.54;61.74
3260;BME280;68938;48.150;14.004;2023-05-29T02:40:20;98050.59;;;15.52;61.34
3260;BME280;68938;48.150;14.004;2023-05-29T02:42:47;98053.34;;;15.49;61.81
3260;BME280;68938;48.150;14.004;2023-05-29T02:45:14;98050.91;;;15.46;61.53
3260;BME280;68938;48.150;14.004;2023-05-29T02:47:41;98036.00;;;15.34;61.75
3260;BME280;68938;48.150;14.004;2023-05-29T02:50:08;98048.78;;;15.37;61.86
3260;BME280;68938;48.150;14.004;2023-05-29T02:52:36;98060.03;;;15.36;62.10
3260;BME280;68938;48.150;14.004;2023-05-29T02:55:03;98054.09;;;15.34;62.27
3260;BME280;68938;48.150;14.004;2023-05-29T02:57:30;98046.13;;;15.21;62.43
3260;BME280;68938;48.150;14.004;2023-05-29T02:59:58;98061.72;;;15.20;62.82
3260;BME280;68938;48.150;14.004;2023-05-29T03:02:24;98058.91;;;15.07;62.70
3260;BME280;68938;48.150;14.004;2023-05-29T03:04:52;98064.06;;;15.07;63.52
3260;BME280;68938;48.150;14.004;2023-05-29T03:07:19;98060.06;;;15.01;63.17
3260;BME280;68938;48.150;14.004;2023-05-29T03:09:46;98064.69;;;14.95;63.36
3260;BME280;68938;48.150;14.004;2023-05-29T03:12:13;98059.56;;;14.93;63.23
3260;BME280;68938;48.150;14.004;2023-05-29T03:14:40;98060.41;;;14.93;63.00
3260;BME280;68938;48.150;14.004;2023-05-29T03:17:07;98061.41;;;14.91;62.77
3260;BME280;68938;48.150;14.004;2023-05-29T03:19:34;98064.06;;;14.89;63.12
3260;BME280;68938;48.150;14.004;2023-05-29T03:22:01;98061.63;;;14.86;63.25
3260;BME280;68938;48.150;14.004;2023-05-29T03:24:28;98068.53;;;14.86;63.25
3260;BME280;68938;48.150;14.004;2023-05-29T03:26:55;98067.69;;;14.85;63.11
3260;BME280;68938;48.150;14.004;2023-05-29T03:29:22;98064.44;;;14.82;63.37
3260;BME280;68938;48.150;14.004;2023-05-29T03:31:49;98058.63;;;14.77;63.24
3260;BME280;68938;48.150;14.004;2023-05-29T03:34:16;98076.44;;;14.83;63.40
3260;BME280;68938;48.150;14.004;2023-05-29T03:36:42;98069.69;;;14.80;63.38
3260;BME280;68938;48.150;14.004;2023-05-29T03:39:09;98069.69;;;14.80;63.32
3260;BME280;68938;48.150;14.004;2023-05-29T03:41:36;98067.78;;;14.84;63.09
3260;BME280;68938;48.150;14.004;2023-05-29T03:44:03;98069.44;;;14.85;63.08
3260;BME280;68938;48.150;14.004;2023-05-29T03:46:31;98070.19;;;14.87;63.01
3260;BME280;68938;48.150;14.004;2023-05-29T03:48:58;98072.78;;;14.87;63.09
3260;BME280;68938;48.150;14.004;2023-05-29T03:51:25;98068.75;;;14.81;63.15
3260;BME280;68938;48.150;14.004;2023-05-29T03:53:52;98076.13;;;14.89;62.82
3260;BME280;68938;48.150;14.004;2023-05-29T03:56:19;98072.72;;;14.88;63.28
3260;BME280;68938;48.150;14.004;2023-05-29T03:58:46;98071.81;;;14.89;63.45
3260;BME280;68938;48.150;14.004;2023-05-29T04:01:13;98083.88;;;14.89;63.43
3260;BME280;68938;48.150;14.004;2023-05-29T04:03:39;98083.88;;;14.89;63.46
3260;BME280;68938;48.150;14.004;2023-05-29T04:06:07;98078.81;;;14.87;63.44
3260;BME280;68938;48.150;14.004;2023-05-29T04:08:34;98082.22;;;14.88;63.47
3260;BME280;68938;48.150;14.004;2023-05-29T04:11:01;98085.53;;;14.90;63.22
3260;BME280;68938;48.150;14.004;2023-05-29T04:13:28;98072.03;;;14.85;63.22
3260;BME280;68938;48.150;14.004;2023-05-29T04:15:54;98082.81;;;14.93;63.51
3260;BME280;68938;48.150;14.004;2023-05-29T04:18:22;98079.16;;;14.97;63.55
3260;BME280;68938;48.150;14.004;2023-05-29T04:20:49;98087.94;;;14.95;64.09
3260;BME280;68938;48.150;14.004;2023-05-29T04:23:16;98086.78;;;15.00;63.78
3260;BME280;68938;48.150;14.004;2023-05-29T04:25:43;98089.34;;;15.00;64.00
3260;BME280;68938;48.150;14.004;2023-05-29T04:28:10;98091.88;;;15.02;63.71
3260;BME280;68938;48.150;14.004;2023-05-29T04:30:37;98094.53;;;15.00;64.00
3260;BME280;68938;48.150;14.004;2023-05-29T04:33:04;98101.44;;;15.00;63.90
3260;BME280;68938;48.150;14.004;2023-05-29T04:35:31;98101.53;;;14.98;63.87
3260;BME280;68938;48.150;14.004;2023-05-29T04:37:58;98097.03;;;14.84;63.83
3260;BME280;68938;48.150;14.004;2023-05-29T04:40:25;98106.22;;;14.90;64.27
3260;BME280;68938;48.150;14.004;2023-05-29T04:42:52;98115.13;;;15.02;63.99
3260;BME280;68938;48.150;14.004;2023-05-29T04:45:20;98109.50;;;15.11;63.88
3260;BME280;68938;48.150;14.004;2023-05-29T04:47:47;98109.88;;;15.21;63.74
3260;BME280;68938;48.150;14.004;2023-05-29T04:50:15;98121.53;;;15.29;63.40
3260;BME280;68938;48.150;14.004;2023-05-29T04:52:43;98122.06;;;15.36;63.48
3260;BME280;68938;48.150;14.004;2023-05-29T04:55:10;98122.81;;;15.38;63.08
3260;BME280;68938;48.150;14.004;2023-05-29T04:57:37;98117.78;;;15.35;62.93
3260;BME280;68938;48.150;14.004;2023-05-29T05:00:05;98123.50;;;15.41;62.76
3260;BME280;68938;48.150;14.004;2023-05-29T05:02:32;98122.59;;;15.43;63.08
3260;BME280;68938;48.150;14.004;2023-05-29T05:04:59;98117.97;;;15.49;63.13
3260;BME280;68938;48.150;14.004;2023-05-29T05:07:26;98128.47;;;15.46;63.15
3260;BME280;68938;48.150;14.004;2023-05-29T05:09:53;98115.44;;;15.48;63.44
3260;BME280;68938;48.150;14.004;2023-05-29T05:12:20;98131.34;;;15.57;63.29
3260;BME280;68938;48.150;14.004;2023-05-29T05:14:47;98127.25;;;15.71;62.99
3260;BME280;68938;48.150;14.004;2023-05-29T05:17:14;98126.38;;;15.87;62.69
3260;BME280;68938;48.150;14.004;2023-05-29T05:19:41;98141.78;;;16.06;62.57
3260;BME280;68938;48.150;14.004;2023-05-29T05:22:08;98130.28;;;16.12;62.05
3260;BME280;68938;48.150;14.004;2023-05-29T05:24:35;98120.84;;;16.27;61.94
3260;BME280;68938;48.150;14.004;2023-05-29T05:27:03;98132.16;;;16.42;60.65
3260;BME280;68938;48.150;14.004;2023-05-29T05:29:30;98131.41;;;16.40;60.75
3260;BME280;68938;48.150;14.004;2023-05-29T05:31:57;98130.91;;;16.49;60.58
3260;BME280;68938;48.150;14.004;2023-05-29T05:34:24;98128.25;;;16.66;60.14
3260;BME280;68938;48.150;14.004;2023-05-29T05:36:51;98128.34;;;16.80;59.73
3260;BME280;68938;48.150;14.004;2023-05-29T05:39:19;98138.03;;;16.93;59.61
3260;BME280;68938;48.150;14.004;2023-05-29T05:41:46;98132.91;;;17.07;58.98
3260;BME280;68938;48.150;14.004;2023-05-29T05:44:13;98128.44;;;17.25;60.02
3260;BME280;68938;48.150;14.004;2023-05-29T05:46:40;98131.06;;;17.39;58.66
3260;BME280;68938;48.150;14.004;2023-05-29T05:49:06;98139.09;;;17.50;57.72
3260;BME280;68938;48.150;14.004;2023-05-29T05:51:34;98137.16;;;17.54;57.22
3260;BME280;68938;48.150;14.004;2023-05-29T05:54:00;98122.94;;;17.45;57.04
3260;BME280;68938;48.150;14.004;2023-05-29T05:56:27;98137.16;;;17.68;56.80
3260;BME280;68938;48.150;14.004;2023-05-29T05:58:54;98135.91;;;17.90;56.68
3260;BME280;68938;48.150;14.004;2023-05-29T06:01:21;98141.41;;;18.14;56.43
3260;BME280;68938;48.150;14.004;2023-05-29T06:03:48;98136.94;;;18.30;55.76
3260;BME280;68938;48.150;14.004;2023-05-29T06:06:15;98143.53;;;18.50;55.80
3260;BME280;68938;48.150;14.004;2023-05-29T06:08:42;98146.28;;;18.76;54.46
3260;BME280;68938;48.150;14.004;2023-05-29T06:11:09;98143.78;;;19.01;55.01
3260;BME280;68938;48.150;14.004;2023-05-29T06:13:36;98136.88;;;19.27;55.13
3260;BME280;68938;48.150;14.004;2023-05-29T06:16:03;98141.53;;;19.49;53.33
3260;BME280;68938;48.150;14.004;2023-05-29T06:18:30;98144.78;;;19.65;53.02
3260;BME280;68938;48.150;14.004;2023-05-29T06:20:57;98141.50;;;19.76;51.75
3260;BME280;68938;48.150;14.004;2023-05-29T06:23:25;98145.31;;;19.96;51.14
3260;BME280;68938;48.150;14.004;2023-05-29T06:25:52;98150.22;;;20.13;49.81
3260;BME280;68938;48.150;14.004;2023-05-29T06:28:18;98146.44;;;20.30;49.26
3260;BME280;68938;48.150;14.004;2023-05-29T06:30:45;98150.47;;;20.47;48.55
3260;BME280;68938;48.150;14.004;2023-05-29T06:33:12;98137.84;;;20.67;47.49
3260;BME280;68938;48.150;14.004;2023-05-29T06:35:39;98142.81;;;20.82;47.49
3260;BME280;68938;48.150;14.004;2023-05-29T06:38:06;98144.09;;;21.01;46.88
3260;BME280;68938;48.150;14.004;2023-05-29T06:40:33;98142.25;;;21.14;46.77
3260;BME280;68938;48.150;14.004;2023-05-29T06:43:00;98147.72;;;21.22;46.05
3260;BME280;68938;48.150;14.004;2023-05-29T06:45:27;98146.22;;;21.20;46.46
3260;BME280;68938;48.150;14.004;2023-05-29T06:47:54;98148.13;;;21.29;45.82
3260;BME280;68938;48.150;14.004;2023-05-29T06:50:21;98144.75;;;21.40;46.18
3260;BME280;68938;48.150;14.004;2023-05-29T06:52:48;98143.59;;;21.44;44.86
3260;BME280;68938;48.150;14.004;2023-05-29T06:55:15;98148.25;;;21.63;44.56
3260;BME280;68938;48.150;14.004;2023-05-29T06:57:42;98142.81;;;21.77;44.12
3260;BME280;68938;48.150;14.004;2023-05-29T07:00:10;98139.53;;;21.97;44.90
3260;BME280;68938;48.150;14.004;2023-05-29T07:02:38;98146.59;;;22.19;43.80
3260;BME280;68938;48.150;14.004;2023-05-29T07:05:05;98145.06;;;22.39;44.03
3260;BME280;68938;48.150;14.004;2023-05-29T07:07:32;98147.75;;;22.49;42.16
3260;BME280;68938;48.150;14.004;2023-05-29T07:09:59;98147.53;;;22.63;42.07
3260;BME280;68938;48.150;14.004;2023-05-29T07:12:26;98141.09;;;22.56;41.66
3260;BME280;68938;48.150;14.004;2023-05-29T07:14:53;98156.06;;;22.65;42.61
3260;BME280;68938;48.150;14.004;2023-05-29T07:17:20;98155.13;;;22.55;41.65
3260;BME280;68938;48.150;14.004;2023-05-29T07:19:47;98150.22;;;22.73;42.96
3260;BME280;68938;48.150;14.004;2023-05-29T07:22:15;98153.53;;;22.86;41.30
3260;BME280;68938;48.150;14.004;2023-05-29T07:24:42;98157.81;;;22.87;41.54
3260;BME280;68938;48.150;14.004;2023-05-29T07:27:09;98148.75;;;23.03;41.71
3260;BME280;68938;48.150;14.004;2023-05-29T07:29:36;98160.09;;;23.24;42.35
3260;BME280;68938;48.150;14.004;2023-05-29T07:32:03;98155.50;;;23.16;40.87
3260;BME280;68938;48.150;14.004;2023-05-29T07:34:30;98157.31;;;23.37;41.09
3260;BME280;68938;48.150;14.004;2023-05-29T07:36:58;98147.34;;;23.52;41.20
3260;BME280;68938;48.150;14.004;2023-05-29T07:39:34;98148.09;;;23.75;40.14
3260;BME280;68938;48.150;14.004;2023-05-29T07:42:02;98157.47;;;23.98;41.32
3260;BME280;68938;48.150;14.004;2023-05-29T07:44:29;98154.47;;;23.82;40.44
3260;BME280;68938;48.150;14.004;2023-05-29T07:46:56;98163.03;;;24.05;40.28
3260;BME280;68938;48.150;14.004;2023-05-29T07:49:23;98164.69;;;24.06;41.19
3260;BME280;68938;48.150;14.004;2023-05-29T07:51:50;98164.06;;;23.93;40.14
3260;BME280;68938;48.150;14.004;2023-05-29T07:54:17;98161.81;;;24.09;39.91
3260;BME280;68938;48.150;14.004;2023-05-29T07:56:44;98156.75;;;24.17;39.91
3260;BME280;68938;48.150;14.004;2023-05-29T07:59:11;98161.19;;;24.26;39.74
3260;BME280;68938;48.150;14.004;2023-05-29T08:01:38;98159.84;;;24.01;39.22
3260;BME280;68938;48.150;14.004;2023-05-29T08:04:06;98158.41;;;24.18;39.22
3260;BME280;68938;48.150;14.004;2023-05-29T08:06:33;98159.78;;;24.43;39.79
3260;BME280;68938;48.150;14.004;2023-05-29T08:09:00;98154.84;;;24.50;38.42
3260;BME280;68938;48.150;14.004;2023-05-29T08:11:27;98157.06;;;24.64;38.14
3260;BME280;68938;48.150;14.004;2023-05-29T08:13:54;98145.94;;;24.81;37.26
3260;BME280;68938;48.150;14.004;2023-05-29T08:16:21;98149.00;;;24.96;37.06
3260;BME280;68938;48.150;14.004;2023-05-29T08:18:48;98154.44;;;25.14;37.54
3260;BME280;68938;48.150;14.004;2023-05-29T08:21:14;98150.16;;;25.42;37.90
3260;BME280;68938;48.150;14.004;2023-05-29T08:23:41;98144.59;;;25.65;36.19
3260;BME280;68938;48.150;14.004;2023-05-29T08:26:08;98152.16;;;25.77;36.05
3260;BME280;68938;48.150;14.004;2023-05-29T08:28:35;98145.13;;;25.78;35.56
3260;BME280;68938;48.150;14.004;2023-05-29T08:31:03;98151.09;;;25.80;34.99
3260;BME280;68938;48.150;14.004;2023-05-29T08:33:30;98144.06;;;25.61;34.03
3260;BME280;68938;48.150;14.004;2023-05-29T08:35:58;98142.09;;;25.63;34.11
3260;BME280;68938;48.150;14.004;2023-05-29T08:38:25;98140.03;;;25.57;34.28
3260;BME280;68938;48.150;14.004;2023-05-29T08:40:53;98152.16;;;25.77;34.10
3260;BME280;68938;48.150;14.004;2023-05-29T08:43:24;98129.97;;;25.52;34.40
3260;BME280;68938;48.150;14.004;2023-05-29T08:45:54;98146.81;;;25.89;34.28
3260;BME280;68938;48.150;14.004;2023-05-29T08:48:27;98153.41;;;26.03;34.67
3260;BME280;68938;48.150;14.004;2023-05-29T08:50:57;98133.31;;;26.02;33.75
3260;BME280;68938;48.150;14.004;2023-05-29T08:53:25;98144.84;;;26.28;33.00
3260;BME280;68938;48.150;14.004;2023-05-29T08:55:53;98144.59;;;26.21;32.99
3260;BME280;68938;48.150;14.004;2023-05-29T08:58:20;98146.84;;;26.54;33.89
3260;BME280;68938;48.150;14.004;2023-05-29T09:00:48;98141.63;;;26.72;33.05
3260;BME280;68938;48.150;14.004;2023-05-29T09:03:16;98134.97;;;26.77;33.09
3260;BME280;68938;48.150;14.004;2023-05-29T09:05:44;98143.69;;;26.96;32.14
3260;BME280;68938;48.150;14.004;2023-05-29T09:08:12;98139.16;;;27.15;33.04
3260;BME280;68938;48.150;14.004;2023-05-29T09:10:43;98139.94;;;27.34;33.00
3260;BME280;68938;48.150;14.004;2023-05-29T09:13:11;98126.34;;;27.38;32.10
3260;BME280;68938;48.150;14.004;2023-05-29T09:15:39;98129.16;;;27.45;31.59
3260;BME280;68938;48.150;14.004;2023-05-29T09:18:07;98124.38;;;27.40;31.64
3260;BME280;68938;48.150;14.004;2023-05-29T09:20:34;98117.91;;;27.17;31.49
3260;BME280;68938;48.150;14.004;2023-05-29T09:23:04;98126.00;;;27.41;31.89
3260;BME280;68938;48.150;14.004;2023-05-29T09:25:43;98117.38;;;27.49;32.27
3260;BME280;68938;48.150;14.004;2023-05-29T09:28:10;98131.78;;;27.81;31.70
3260;BME280;68938;48.150;14.004;2023-05-29T09:33:08;98132.97;;;27.86;31.81
3260;BME280;68938;48.150;14.004;2023-05-29T09:38:09;98122.81;;;28.00;31.33
3260;BME280;68938;48.150;14.004;2023-05-29T09:40:43;98128.75;;;28.02;31.96
3260;BME280;68938;48.150;14.004;2023-05-29T09:43:12;98120.63;;;28.21;30.14
3260;BME280;68938;48.150;14.004;2023-05-29T09:45:45;98128.88;;;28.26;30.17
3260;BME280;68938;48.150;14.004;2023-05-29T09:48:17;98130.47;;;28.11;29.98
3260;BME280;68938;48.150;14.004;2023-05-29T09:50:51;98143.44;;;28.04;31.08
3260;BME280;68938;48.150;14.004;2023-05-29T09:55:48;98127.22;;;28.25;29.39
3260;BME280;68938;48.150;14.004;2023-05-29T09:58:17;98123.56;;;28.18;29.02
3260;BME280;68938;48.150;14.004;2023-05-29T10:00:45;98119.41;;;28.07;28.91
3260;BME280;68938;48.150;14.004;2023-05-29T10:03:13;98124.03;;;28.40;31.24
3260;BME280;68938;48.150;14.004;2023-05-29T10:05:42;98127.41;;;28.66;30.67
3260;BME280;68938;48.150;14.004;2023-05-29T10:08:45;98118.28;;;28.52;29.66
3260;BME280;68938;48.150;14.004;2023-05-29T10:11:42;98118.50;;;28.59;30.11
3260;BME280;68938;48.150;14.004;2023-05-29T10:14:38;98118.53;;;28.84;29.70
3260;BME280;68938;48.150;14.004;2023-05-29T10:17:35;98112.13;;;28.86;28.38
3260;BME280;68938;48.150;14.004;2023-05-29T10:20:31;98106.81;;;28.78;28.29
3260;BME280;68938;48.150;14.004;2023-05-29T10:23:28;98108.78;;;28.84;27.93
3260;BME280;68938;48.150;14.004;2023-05-29T10:26:27;98106.00;;;28.86;29.36
3260;BME280;68938;48.150;14.004;2023-05-29T10:29:39;98109.38;;;28.53;29.51
3260;BME280;68938;48.150;14.004;2023-05-29T10:36:14;98116.28;;;28.46;27.87
3260;BME280;68938;48.150;14.004;2023-05-29T10:39:11;98107.88;;;28.17;27.69
3260;BME280;68938;48.150;14.004;2023-05-29T10:48:36;98104.97;;;28.70;28.73
3260;BME280;68938;48.150;14.004;2023-05-29T10:51:30;98099.38;;;28.65;27.56
3260;BME280;68938;48.150;14.004;2023-05-29T10:54:26;98095.38;;;28.61;27.31
3260;BME280;68938;48.150;14.004;2023-05-29T10:57:21;98106.34;;;28.83;27.68
3260;BME280;68938;48.150;14.004;2023-05-29T11:00:16;98096.13;;;28.96;26.86
3260;BME280;68938;48.150;14.004;2023-05-29T11:03:14;98100.59;;;29.12;25.66
3260;BME280;68938;48.150;14.004;2023-05-29T11:06:20;98094.94;;;28.98;25.85
3260;BME280;68938;48.150;14.004;2023-05-29T11:09:35;98096.72;;;28.65;25.81
3260;BME280;68938;48.150;14.004;2023-05-29T11:12:30;98078.38;;;28.55;25.49
3260;BME280;68938;48.150;14.004;2023-05-29T11:15:25;98082.56;;;28.91;24.64
3260;BME280;68938;48.150;14.004;2023-05-29T11:18:20;98079.59;;;28.94;23.23
3260;BME280;68938;48.150;14.004;2023-05-29T11:24:43;98077.28;;;28.99;22.32
3260;BME280;68938;48.150;14.004;2023-05-29T11:27:38;98079.59;;;28.94;23.23
3260;BME280;68938;48.150;14.004;2023-05-29T11:31:01;98081.75;;;28.98;23.58
3260;BME280;68938;48.150;14.004;2023-05-29T11:34:03;98075.47;;;28.91;26.61
3260;BME280;68938;48.150;14.004;2023-05-29T13:43:21;98019.59;;;31.38;24.40
3260;BME280;68938;48.150;14.004;2023-05-29T13:46:01;98012.66;;;31.52;24.49
3260;BME280;68938;48.150;14.004;2023-05-29T13:48:56;98018.97;;;31.51;24.88
3260;BME280;68938;48.150;14.004;2023-05-29T13:51:22;98013.06;;;31.26;24.16
3260;BME280;68938;48.150;14.004;2023-05-29T13:53:49;98004.53;;;31.54;24.15
3260;BME280;68938;48.150;14.004;2023-05-29T13:56:16;98008.97;;;31.83;24.46
3260;BME280;68938;48.150;14.004;2023-05-29T13:58:43;98007.13;;;32.13;24.25
3260;BME280;68938;48.150;14.004;2023-05-29T14:01:10;97999.28;;;31.75;24.04
3260;BME280;68938;48.150;14.004;2023-05-29T14:03:38;98000.84;;;31.84;24.13
3260;BME280;68938;48.150;14.004;2023-05-29T14:06:08;97996.81;;;31.59;24.49
3260;BME280;68938;48.150;14.004;2023-05-29T14:08:35;97995.47;;;31.78;24.11
3260;BME280;68938;48.150;14.004;2023-05-29T14:11:02;97989.44;;;31.39;24.13
3260;BME280;68938;48.150;14.004;2023-05-29T14:13:29;97994.59;;;31.18;24.98
3260;BME280;68938;48.150;14.004;2023-05-29T14:15:56;97991.81;;;30.74;25.08
3260;BME280;68938;48.150;14.004;2023-05-29T14:18:23;97988.84;;;30.45;25.54
3260;BME280;68938;48.150;14.004;2023-05-29T14:20:50;97990.66;;;30.45;26.01
3260;BME280;68938;48.150;14.004;2023-05-29T14:23:18;97995.50;;;30.64;25.63
3260;BME280;68938;48.150;14.004;2023-05-29T14:25:45;97990.28;;;30.79;25.59
3260;BME280;68938;48.150;14.004;2023-05-29T14:28:12;97989.50;;;30.93;25.30
3260;BME280;68938;48.150;14.004;2023-05-29T14:30:39;97986.16;;;31.14;25.98
3260;BME280;68938;48.150;14.004;2023-05-29T14:33:06;97987.69;;;31.32;25.15
3260;BME280;68938;48.150;14.004;2023-05-29T14:35:33;97987.19;;;31.28;24.68
3260;BME280;68938;48.150;14.004;2023-05-29T14:38:00;97996.00;;;31.44;24.10
3260;BME280;68938;48.150;14.004;2023-05-29T14:40:27;97990.25;;;31.55;24.49
3260;BME280;68938;48.150;14.004;2023-05-29T14:42:54;97986.22;;;31.74;24.79
3260;BME280;68938;48.150;14.004;2023-05-29T14:45:21;97983.00;;;31.78;24.39
3260;BME280;68938;48.150;14.004;2023-05-29T14:47:48;97983.09;;;31.85;23.99
3260;BME280;68938;48.150;14.004;2023-05-29T14:50:15;97974.97;;;32.01;23.98
3260;BME280;68938;48.150;14.004;2023-05-29T14:52:42;97970.34;;;32.10;24.20
3260;BME280;68938;48.150;14.004;2023-05-29T14:55:09;97975.63;;;32.25;24.83
3260;BME280;68938;48.150;14.004;2023-05-29T14:57:36;97966.19;;;32.22;23.60
3260;BME280;68938;48.150;14.004;2023-05-29T15:00:04;97971.44;;;32.37;23.25
3260;BME280;68938;48.150;14.004;2023-05-29T15:02:32;97971.19;;;32.47;23.67
3260;BME280;68938;48.150;14.004;2023-05-29T15:04:59;97973.47;;;32.50;23.62
3260;BME280;68938;48.150;14.004;2023-05-29T15:07:26;97960.88;;;32.59;24.21
3260;BME280;68938;48.150;14.004;2023-05-29T15:09:53;97958.81;;;32.82;23.69
3260;BME280;68938;48.150;14.004;2023-05-29T15:12:20;97961.34;;;32.90;23.65
3260;BME280;68938;48.150;14.004;2023-05-29T15:14:47;97950.97;;;32.95;23.76
3260;BME280;68938;48.150;14.004;2023-05-29T15:17:16;97962.66;;;32.51;23.49
3260;BME280;68938;48.150;14.004;2023-05-29T15:19:43;97955.13;;;32.19;24.81
3260;BME280;68938;48.150;14.004;2023-05-29T15:22:10;97951.53;;;31.75;24.52
3260;BME280;68938;48.150;14.004;2023-05-29T15:24:37;97960.97;;;31.78;24.47
3260;BME280;68938;48.150;14.004;2023-05-29T15:27:05;97956.69;;;31.77;25.08
3260;BME280;68938;48.150;14.004;2023-05-29T15:29:35;97953.44;;;31.96;24.93
3260;BME280;68938;48.150;14.004;2023-05-29T15:32:03;97956.97;;;31.52;25.10
3260;BME280;68938;48.150;14.004;2023-05-29T15:34:30;97957.22;;;31.72;24.50
3260;BME280;68938;48.150;14.004;2023-05-29T15:36:57;97957.94;;;31.81;24.46
3260;BME280;68938;48.150;14.004;2023-05-29T15:39:24;97961.06;;;31.70;24.05
3260;BME280;68938;48.150;14.004;2023-05-29T15:41:51;97965.53;;;31.69;24.93
3260;BME280;68938;48.150;14.004;2023-05-29T15:44:18;97967.09;;;31.78;25.22
3260;BME280;68938;48.150;14.004;2023-05-29T15:46:45;97964.56;;;31.41;24.29
3260;BME280;68938;48.150;14.004;2023-05-29T15:49:12;97961.50;;;31.29;24.88
3260;BME280;68938;48.150;14.004;2023-05-29T15:51:39;97956.13;;;31.22;25.81
3260;BME280;68938;48.150;14.004;2023-05-29T15:54:06;97959.56;;;31.08;25.77